createdAt,value
2022-10-01T00:01:29.013Z,71.20
2022-10-01T00:03:57.130Z,71.47
2022-10-01T00:06:26.444Z,71.35
2022-10-01T00:08:54.389Z,71.15
2022-10-01T00:11:26.753Z,71.79
2022-10-01T00:13:55.693Z,71.31
2022-10-01T00:16:26.007Z,71.89
2022-10-01T00:18:54.537Z,71.41
2022-10-01T00:21:25.273Z,71.68
2022-10-01T00:23:56.989Z,72.04
2022-10-01T00:26:27.440Z,71.54
2022-10-01T00:28:57.308Z,72.22
2022-10-01T00:31:26.805Z,72.01
2022-10-01T00:33:55.215Z,72.16
2022-10-01T00:36:25.817Z,71.78
2022-10-01T00:38:53.841Z,72.27
2022-10-01T00:41:23.445Z,72.62
2022-10-01T00:43:56.751Z,72.09
2022-10-01T00:46:30.011Z,72.16
2022-10-01T00:49:04.486Z,72.30
2022-10-01T00:51:36.890Z,72.14
2022-10-01T00:54:10.402Z,72.49
2022-10-01T00:56:40.592Z,72.37
2022-10-01T00:59:09.149Z,72.46
2022-10-01T01:01:39.009Z,72.81
2022-10-01T01:04:16.337Z,72.58
2022-10-01T01:06:46.129Z,72.76
2022-10-01T01:09:14.502Z,72.84
2022-10-01T01:11:54.389Z,72.78
2022-10-01T01:14:30.064Z,72.82
2022-10-01T01:17:02.902Z,73.23
2022-10-01T01:19:45.258Z,73.02
2022-10-01T01:22:15.741Z,73.28
2022-10-01T01:24:50.099Z,73.12
2022-10-01T01:27:35.785Z,73.33
2022-10-01T01:30:08.647Z,73.25
2022-10-01T01:32:46.487Z,73.33
2022-10-01T01:35:20.805Z,73.29
2022-10-01T01:37:53.564Z,73.88
2022-10-01T01:40:23.216Z,73.49
2022-10-01T01:42:54.419Z,73.89
2022-10-01T01:45:28.726Z,73.31
2022-10-01T01:47:59.731Z,73.58
2022-10-01T01:50:33.484Z,73.84
2022-10-01T01:53:02.447Z,73.84
2022-10-01T01:55:32.136Z,73.68
2022-10-01T01:58:00.508Z,73.88
2022-10-01T02:00:30.316Z,73.78
2022-10-01T02:02:59.264Z,74.31
2022-10-01T02:05:35.332Z,74.31
2022-10-01T02:08:27.796Z,74.57
2022-10-01T02:11:06.565Z,74.20
2022-10-01T02:13:44.372Z,74.29
2022-10-01T02:16:22.942Z,74.40
2022-10-01T02:18:58.656Z,74.33
2022-10-01T02:21:32.163Z,74.09
2022-10-01T02:24:06.891Z,74.46
2022-10-01T02:26:37.314Z,74.38
2022-10-01T02:29:08.763Z,74.21
2022-10-01T02:31:38.380Z,74.34
2022-10-01T02:34:12.352Z,74.58
2022-10-01T02:36:42.696Z,74.90
2022-10-01T02:39:12.945Z,74.73
2022-10-01T02:41:45.178Z,74.93
2022-10-01T02:44:20.815Z,74.69
2022-10-01T02:46:56.247Z,75.12
2022-10-01T02:49:28.586Z,75.20
2022-10-01T02:52:05.445Z,75.07
2022-10-01T02:54:39.608Z,75.21
2022-10-01T02:57:28.446Z,75.34
2022-10-01T02:59:59.874Z,75.65
2022-10-01T03:02:31.808Z,75.39
2022-10-01T03:05:01.203Z,75.24
2022-10-01T03:07:32.109Z,75.29
2022-10-01T03:10:00.170Z,75.71
2022-10-01T03:12:28.321Z,75.84
2022-10-01T03:14:56.771Z,76.03
2022-10-01T03:17:24.913Z,75.93
2022-10-01T03:19:54.213Z,75.91
2022-10-01T03:22:23.717Z,75.69
2022-10-01T03:24:52.076Z,76.30
2022-10-01T03:27:20.243Z,76.28
2022-10-01T03:29:48.765Z,76.20
2022-10-01T03:32:17.797Z,76.14
2022-10-01T03:34:46.238Z,76.19
2022-10-01T03:37:15.573Z,76.47
2022-10-01T03:39:43.816Z,76.43
2022-10-01T03:42:11.786Z,76.37
2022-10-01T03:44:39.977Z,76.43
2022-10-01T03:47:08.275Z,76.71
2022-10-01T03:49:36.375Z,76.65
2022-10-01T03:52:05.403Z,76.48
2022-10-01T03:54:35.096Z,76.37
2022-10-01T03:57:03.497Z,76.59
2022-10-01T03:59:31.496Z,77.00
2022-10-01T04:01:59.724Z,76.74
2022-10-01T04:04:29.052Z,76.55
2022-10-01T04:06:57.041Z,76.54
2022-10-01T04:09:25.058Z,76.74
2022-10-01T04:11:54.406Z,76.82
2022-10-01T04:14:22.365Z,76.89
2022-10-01T04:16:52.656Z,76.96
2022-10-01T04:19:21.123Z,76.66
2022-10-01T04:21:48.945Z,77.09
2022-10-01T04:24:16.875Z,76.69
2022-10-01T04:26:44.787Z,77.27
2022-10-01T04:29:14.251Z,76.98
2022-10-01T04:31:42.324Z,77.36
2022-10-01T04:34:10.346Z,76.78
2022-10-01T04:36:38.275Z,77.37
2022-10-01T04:39:06.739Z,77.00
2022-10-01T04:41:35.016Z,76.72
2022-10-01T04:44:03.486Z,77.28
2022-10-01T04:46:32.935Z,77.38
2022-10-01T04:49:01.112Z,77.61
2022-10-01T04:51:29.701Z,77.65
2022-10-01T04:53:57.725Z,77.29
2022-10-01T04:56:25.887Z,77.49
2022-10-01T04:58:53.969Z,77.94
2022-10-01T05:01:21.955Z,78.08
2022-10-01T05:03:51.468Z,77.53
2022-10-01T05:06:19.650Z,77.29
2022-10-01T05:08:48.239Z,77.92
2022-10-01T05:11:16.154Z,77.51
2022-10-01T05:13:44.227Z,77.87
2022-10-01T05:16:12.277Z,77.82
2022-10-01T05:18:40.589Z,77.56
2022-10-01T05:21:11.855Z,78.32
2022-10-01T05:23:39.794Z,77.70
2022-10-01T05:26:07.768Z,78.26
2022-10-01T05:28:37.173Z,78.46
2022-10-01T05:31:05.685Z,78.53
2022-10-01T05:33:34.526Z,78.33
2022-10-01T05:36:07.473Z,78.14
2022-10-01T05:38:37.447Z,78.45
2022-10-01T05:41:08.013Z,78.33
2022-10-01T05:43:36.133Z,78.64
2022-10-01T05:46:06.446Z,78.54
2022-10-01T05:48:38.032Z,78.78
2022-10-01T05:51:08.319Z,78.27
2022-10-01T05:53:39.082Z,78.69
2022-10-01T05:56:07.740Z,78.99
2022-10-01T05:58:36.241Z,78.85
2022-10-01T06:01:04.388Z,78.70
2022-10-01T06:03:33.399Z,78.54
2022-10-01T06:06:01.849Z,79.25
2022-10-01T06:08:29.782Z,79.28
2022-10-01T06:11:02.720Z,78.85
2022-10-01T06:13:32.037Z,79.07
2022-10-01T06:16:00.076Z,79.35
2022-10-01T06:18:28.572Z,79.38
2022-10-01T06:20:58.824Z,79.24
2022-10-01T06:23:26.905Z,79.25
2022-10-01T06:25:55.323Z,79.47
2022-10-01T06:28:24.610Z,79.15
2022-10-01T06:30:52.547Z,79.40
2022-10-01T06:33:20.992Z,79.63
2022-10-01T06:35:50.914Z,79.67
2022-10-01T06:38:21.042Z,79.38
2022-10-01T06:40:53.728Z,79.80
2022-10-01T06:43:21.874Z,80.00
2022-10-01T06:45:51.808Z,79.94
2022-10-01T06:48:21.026Z,79.67
2022-10-01T06:50:50.826Z,79.88
2022-10-01T06:53:18.250Z,79.59
2022-10-01T06:55:46.777Z,80.41
2022-10-01T06:58:16.790Z,79.94
2022-10-01T07:00:45.354Z,79.90
2022-10-01T07:03:16.946Z,80.36
2022-10-01T07:05:45.253Z,80.57
2022-10-01T07:08:13.185Z,80.29
2022-10-01T07:10:42.761Z,80.07
2022-10-01T07:13:14.316Z,80.56
2022-10-01T07:15:42.425Z,80.40
2022-10-01T07:18:11.364Z,80.77
2022-10-01T07:20:41.064Z,80.76
2022-10-01T07:23:11.426Z,80.82
2022-10-01T07:25:40.551Z,81.08
2022-10-01T07:28:16.916Z,81.31
2022-10-01T07:30:48.469Z,81.52
2022-10-01T07:33:19.644Z,81.58
2022-10-01T07:35:50.087Z,81.59
2022-10-01T07:38:18.647Z,81.85
2022-10-01T07:40:52.052Z,81.66
2022-10-01T07:43:20.112Z,81.80
2022-10-01T07:45:52.831Z,81.42
2022-10-01T07:48:20.778Z,81.40
2022-10-01T07:50:51.122Z,81.48
2022-10-01T07:53:19.984Z,81.83
2022-10-01T07:55:51.200Z,81.64
2022-10-01T07:58:24.071Z,81.43
2022-10-01T08:00:56.327Z,81.57
2022-10-01T08:03:24.493Z,81.45
2022-10-01T08:05:54.704Z,81.38
2022-10-01T08:08:23.095Z,81.59
2022-10-01T08:10:53.010Z,81.31
2022-10-01T08:13:25.066Z,81.55
2022-10-01T08:15:54.664Z,81.79
2022-10-01T08:18:23.471Z,81.55
2022-10-01T08:20:52.874Z,81.56
2022-10-01T08:23:22.688Z,81.68
2022-10-01T08:25:54.148Z,81.41
2022-10-01T08:28:22.428Z,81.45
2022-10-01T08:30:50.381Z,81.27
2022-10-01T08:33:18.445Z,81.33
2022-10-01T08:35:46.480Z,81.21
2022-10-01T08:38:16.091Z,81.25
2022-10-01T08:40:48.917Z,81.21
2022-10-01T08:43:32.954Z,81.13
2022-10-01T08:46:04.237Z,81.07
2022-10-01T08:48:45.733Z,80.95
2022-10-01T08:51:21.354Z,80.79
2022-10-01T08:53:54.623Z,80.81
2022-10-01T08:56:29.221Z,80.67
2022-10-01T08:58:59.590Z,80.72
2022-10-01T09:01:48.566Z,80.61
2022-10-01T09:04:17.267Z,80.40
2022-10-01T09:06:51.503Z,80.43
2022-10-01T09:09:33.682Z,79.88
2022-10-01T09:12:18.964Z,80.05
2022-10-01T09:15:02.643Z,79.83
2022-10-01T09:17:45.440Z,79.72
2022-10-01T09:20:22.295Z,79.63
2022-10-01T09:23:05.410Z,79.52
2022-10-01T09:25:38.573Z,79.49
2022-10-01T09:28:15.959Z,79.51
2022-10-01T09:30:50.135Z,79.13
2022-10-01T09:33:20.981Z,78.82
2022-10-01T09:35:52.841Z,78.89
2022-10-01T09:38:27.242Z,79.12
2022-10-01T09:40:56.887Z,78.85
2022-10-01T09:43:29.669Z,78.78
2022-10-01T09:45:58.129Z,78.60
2022-10-01T09:48:34.093Z,78.40
2022-10-01T09:51:11.853Z,78.44
2022-10-01T09:53:45.189Z,78.38
2022-10-01T09:56:25.264Z,78.46
2022-10-01T09:59:13.862Z,78.46
2022-10-01T10:01:45.804Z,78.11
2022-10-01T10:04:20.259Z,77.81
2022-10-01T10:06:49.083Z,77.73
2022-10-01T10:09:19.754Z,77.26
2022-10-01T10:11:47.767Z,77.39
2022-10-01T10:14:23.543Z,77.55
2022-10-01T10:16:52.010Z,77.44
2022-10-01T10:19:24.920Z,76.88
2022-10-01T10:21:57.497Z,77.12
2022-10-01T10:24:28.404Z,76.66
2022-10-01T10:26:59.339Z,76.46
2022-10-01T10:29:33.255Z,76.08
2022-10-01T10:32:05.354Z,75.90
2022-10-01T10:34:38.667Z,75.63
2022-10-01T10:37:14.919Z,75.44
2022-10-01T10:39:50.310Z,75.58
2022-10-01T10:42:25.039Z,75.10
2022-10-01T10:45:00.354Z,74.90
2022-10-01T10:47:34.675Z,74.89
2022-10-01T10:50:20.580Z,74.85
2022-10-01T10:52:48.522Z,74.82
2022-10-01T10:55:25.388Z,75.07
2022-10-01T10:57:57.586Z,74.71
2022-10-01T11:00:30.209Z,74.87
2022-10-01T11:03:01.047Z,74.77
2022-10-01T11:05:34.040Z,74.71
2022-10-01T11:08:05.378Z,74.61
2022-10-01T11:10:44.534Z,74.59
2022-10-01T11:13:33.773Z,74.40
2022-10-01T11:16:26.012Z,74.13
2022-10-01T11:19:23.674Z,74.25
2022-10-01T11:22:17.019Z,74.39
2022-10-01T11:25:14.807Z,73.81
2022-10-01T11:27:53.325Z,73.93
2022-10-01T11:30:26.035Z,73.42
2022-10-01T11:33:07.503Z,73.60
2022-10-01T11:35:55.456Z,73.46
2022-10-01T11:38:40.036Z,73.09
2022-10-01T11:41:19.875Z,72.79
2022-10-01T11:43:53.555Z,72.66
2022-10-01T11:46:34.493Z,72.62
2022-10-01T11:49:21.354Z,72.18
2022-10-01T11:51:52.697Z,72.29
2022-10-01T11:54:27.378Z,71.71
2022-10-01T11:57:17.242Z,71.62
2022-10-01T11:59:51.349Z,71.40
2022-10-01T12:02:25.431Z,71.19
2022-10-01T12:04:59.459Z,71.37
2022-10-01T12:07:33.871Z,71.04
2022-10-01T12:10:07.989Z,71.14
2022-10-01T12:12:47.702Z,70.77
2022-10-01T12:15:21.930Z,70.86
2022-10-01T12:17:55.617Z,70.65
2022-10-01T12:20:31.990Z,70.76
2022-10-01T12:23:03.767Z,70.65
2022-10-01T12:25:44.619Z,70.70
2022-10-01T12:28:17.868Z,70.55
2022-10-01T12:30:53.884Z,70.36
2022-10-01T12:33:44.159Z,70.38
2022-10-01T12:36:25.250Z,70.08
2022-10-01T12:39:12.524Z,70.07
2022-10-01T12:41:53.929Z,70.08
2022-10-01T12:44:38.576Z,69.89
2022-10-01T12:47:20.538Z,69.82
2022-10-01T12:49:56.631Z,69.69
2022-10-01T12:52:38.629Z,69.41
2022-10-01T12:55:50.336Z,69.58
2022-10-01T12:58:34.073Z,69.56
2022-10-01T13:01:09.208Z,69.71
2022-10-01T13:04:05.050Z,69.51
2022-10-01T13:06:41.604Z,69.32
2022-10-01T13:09:32.958Z,69.39
2022-10-01T13:12:15.241Z,69.49
2022-10-01T13:14:44.913Z,69.26
2022-10-01T13:17:19.848Z,69.16
2022-10-01T13:19:56.162Z,68.99
2022-10-01T13:22:35.387Z,69.15
2022-10-01T13:25:21.016Z,68.76
2022-10-01T13:27:57.863Z,68.88
2022-10-01T13:30:28.565Z,68.76
2022-10-01T13:33:00.977Z,68.91
2022-10-01T13:35:35.498Z,68.77
2022-10-01T13:38:15.807Z,68.80
2022-10-01T13:40:46.163Z,68.67
2022-10-01T13:43:19.166Z,68.53
2022-10-01T13:45:51.563Z,68.53
2022-10-01T13:48:23.623Z,68.42
2022-10-01T13:50:58.314Z,68.63
2022-10-01T13:53:29.753Z,68.57
2022-10-01T13:55:59.517Z,68.09
2022-10-01T13:58:37.010Z,68.15
2022-10-01T14:01:12.481Z,68.38
2022-10-01T14:03:57.323Z,67.88
2022-10-01T14:06:32.519Z,67.84
2022-10-01T14:09:11.171Z,67.85
2022-10-01T14:12:03.317Z,67.56
2022-10-01T14:14:54.209Z,67.70
2022-10-01T14:17:32.243Z,67.65
2022-10-01T14:20:02.199Z,67.50
2022-10-01T14:22:45.192Z,67.33
2022-10-01T14:25:34.729Z,67.04
2022-10-01T14:28:19.187Z,66.89
2022-10-01T14:30:56.332Z,67.00
2022-10-01T14:33:55.679Z,66.63
2022-10-01T14:36:31.938Z,66.50
2022-10-01T14:39:15.403Z,66.44
2022-10-01T14:41:44.484Z,66.11
2022-10-01T14:44:25.950Z,66.11
2022-10-01T14:46:55.523Z,65.81
2022-10-01T14:49:27.150Z,65.66
2022-10-01T14:52:00.821Z,65.61
2022-10-01T14:54:31.437Z,65.37
2022-10-01T14:56:59.926Z,65.29
2022-10-01T14:59:34.680Z,65.16
2022-10-01T15:02:05.027Z,64.90
2022-10-01T15:04:33.313Z,64.72
2022-10-01T15:07:06.174Z,64.54
2022-10-01T15:09:35.174Z,64.48
2022-10-01T15:12:06.324Z,64.45
2022-10-01T15:14:38.066Z,64.38
2022-10-01T15:17:08.075Z,64.36
2022-10-01T15:19:44.728Z,64.08
2022-10-01T15:22:13.304Z,63.85
2022-10-01T15:24:57.057Z,64.12
2022-10-01T15:27:26.126Z,63.93
2022-10-01T15:29:58.776Z,63.92
2022-10-01T15:32:31.018Z,63.73
2022-10-01T15:35:02.438Z,63.83
2022-10-01T15:37:34.733Z,63.87
2022-10-01T15:40:05.424Z,63.84
2022-10-01T15:42:35.480Z,63.71
2022-10-01T15:45:25.258Z,63.46
2022-10-01T15:47:57.216Z,63.33
2022-10-01T15:50:28.177Z,63.50
2022-10-01T15:53:03.481Z,63.30
2022-10-01T15:55:35.577Z,63.37
2022-10-01T15:58:15.154Z,63.24
2022-10-01T16:01:00.246Z,63.16
2022-10-01T16:03:31.801Z,63.13
2022-10-01T16:06:03.104Z,63.11
2022-10-01T16:08:35.587Z,62.96
2022-10-01T16:11:17.168Z,62.99
2022-10-01T16:13:46.904Z,62.98
2022-10-01T16:16:30.805Z,62.76
2022-10-01T16:19:01.266Z,62.88
2022-10-01T16:21:29.428Z,62.76
2022-10-01T16:23:57.795Z,62.93
2022-10-01T16:26:38.480Z,62.59
2022-10-01T16:29:24.512Z,62.88
2022-10-01T16:31:54.585Z,62.81
2022-10-01T16:34:22.856Z,62.56
2022-10-01T16:36:51.193Z,62.84
2022-10-01T16:39:19.690Z,62.61
2022-10-01T16:42:01.696Z,62.90
2022-10-01T16:44:40.738Z,62.70
2022-10-01T16:47:11.440Z,62.54
2022-10-01T16:49:39.406Z,62.30
2022-10-01T16:52:07.316Z,63.01
2022-10-01T16:54:35.593Z,62.55
2022-10-01T16:57:03.607Z,62.47
2022-10-01T16:59:33.823Z,62.48
2022-10-01T17:02:02.262Z,62.79
2022-10-01T17:04:34.249Z,63.28
2022-10-01T17:07:02.809Z,63.13
2022-10-01T17:09:30.680Z,62.95
2022-10-01T17:11:59.204Z,62.88
2022-10-01T17:14:27.853Z,63.08
2022-10-01T17:16:55.991Z,62.88
2022-10-01T17:19:25.063Z,62.83
2022-10-01T17:21:55.884Z,62.64
2022-10-01T17:24:23.800Z,62.81
2022-10-01T17:26:52.198Z,63.31
2022-10-01T17:29:20.237Z,62.40
2022-10-01T17:31:52.645Z,63.39
2022-10-01T17:34:21.322Z,62.98
2022-10-01T17:36:49.592Z,62.78
2022-10-01T17:39:19.114Z,63.10
2022-10-01T17:41:47.041Z,63.67
2022-10-01T17:44:15.185Z,63.04
2022-10-01T17:46:43.529Z,63.42
2022-10-01T17:49:11.700Z,63.38
2022-10-01T17:51:39.760Z,63.15
2022-10-01T17:54:07.989Z,63.24
2022-10-01T17:56:38.895Z,62.97
2022-10-01T17:59:06.845Z,63.23
2022-10-01T18:01:38.315Z,63.35
2022-10-01T18:04:06.236Z,63.49
2022-10-01T18:06:34.681Z,63.61
2022-10-01T18:09:02.983Z,63.64
2022-10-01T18:11:30.954Z,63.14
2022-10-01T18:14:00.971Z,64.01
2022-10-01T18:16:29.410Z,63.60
2022-10-01T18:19:52.343Z,63.58
2022-10-01T18:21:46.105Z,63.96
2022-10-01T18:24:17.383Z,63.64
2022-10-01T18:26:46.849Z,64.41
2022-10-01T18:29:19.966Z,64.04
2022-10-01T18:31:52.740Z,63.99
2022-10-01T18:34:26.396Z,64.04
2022-10-01T18:36:59.830Z,64.24
2022-10-01T18:39:33.719Z,64.06
2022-10-01T18:42:05.217Z,64.27
2022-10-01T18:44:36.384Z,64.25
2022-10-01T18:47:17.935Z,64.44
2022-10-01T18:50:01.236Z,64.75
2022-10-01T18:52:43.991Z,64.47
2022-10-01T18:55:30.457Z,64.61
2022-10-01T18:58:15.115Z,64.30
2022-10-01T19:00:56.318Z,65.29
2022-10-01T19:03:45.730Z,65.46
2022-10-01T19:06:29.668Z,65.49
2022-10-01T19:09:15.513Z,65.16
2022-10-01T19:11:52.392Z,65.56
2022-10-01T19:15:00.486Z,65.83
2022-10-01T19:17:56.156Z,65.53
2022-10-01T19:20:37.675Z,65.88
2022-10-01T19:23:21.381Z,65.58
2022-10-01T19:25:52.501Z,65.66
2022-10-01T19:28:43.538Z,66.19
2022-10-01T19:31:17.512Z,65.89
2022-10-01T19:33:53.072Z,66.00
2022-10-01T19:36:30.408Z,66.22
2022-10-01T19:39:06.126Z,66.23
2022-10-01T19:41:40.365Z,66.03
2022-10-01T19:44:15.340Z,66.35
2022-10-01T19:46:45.474Z,66.73
2022-10-01T19:49:21.488Z,66.37
2022-10-01T19:51:52.938Z,66.77
2022-10-01T19:54:24.762Z,66.94
2022-10-01T19:56:56.340Z,66.59
2022-10-01T19:59:24.331Z,67.35
2022-10-01T20:01:55.345Z,66.68
2022-10-01T20:04:33.081Z,67.11
2022-10-01T20:07:05.967Z,67.27
2022-10-01T20:09:43.179Z,66.96
2022-10-01T20:12:22.840Z,66.97
2022-10-01T20:15:13.601Z,67.03
2022-10-01T20:17:57.218Z,67.11
2022-10-01T20:20:32.901Z,67.39
2022-10-01T20:23:21.828Z,66.85
2022-10-01T20:25:54.993Z,67.71
2022-10-01T20:28:28.668Z,67.54
2022-10-01T20:31:03.460Z,67.24
2022-10-01T20:33:43.076Z,67.73
2022-10-01T20:36:19.841Z,67.25
2022-10-01T20:38:54.908Z,67.62
2022-10-01T20:41:24.735Z,67.82
2022-10-01T20:43:57.393Z,67.58
2022-10-01T20:46:35.133Z,67.96
2022-10-01T20:49:06.347Z,67.64
2022-10-01T20:51:43.183Z,67.86
2022-10-01T20:54:16.186Z,68.11
2022-10-01T20:56:48.759Z,68.29
2022-10-01T20:59:20.434Z,68.13
2022-10-01T21:02:01.110Z,68.36
2022-10-01T21:04:33.794Z,68.02
2022-10-01T21:07:19.559Z,68.38
2022-10-01T21:09:51.560Z,68.30
2022-10-01T21:12:24.650Z,68.93
2022-10-01T21:14:55.930Z,68.71
2022-10-01T21:17:35.820Z,68.85
2022-10-01T21:20:35.937Z,68.77
2022-10-01T21:23:15.119Z,68.86
2022-10-01T21:25:56.967Z,68.94
2022-10-01T21:28:43.555Z,68.78
2022-10-01T21:31:26.194Z,68.89
2022-10-01T21:34:01.277Z,69.36
2022-10-01T21:36:35.309Z,69.32
2022-10-01T21:39:12.552Z,69.64
2022-10-01T21:41:53.776Z,69.46
2022-10-01T21:44:58.852Z,69.03
2022-10-01T21:47:39.500Z,69.83
2022-10-01T21:50:20.947Z,70.02
2022-10-01T21:53:07.998Z,70.19
2022-10-01T21:56:03.655Z,69.96
2022-10-01T21:58:49.605Z,70.37
2022-10-01T22:01:27.009Z,70.29
2022-10-01T22:04:04.700Z,70.31
2022-10-01T22:06:40.927Z,69.95
2022-10-01T22:09:17.994Z,70.17
2022-10-01T22:11:52.931Z,70.58
2022-10-01T22:14:23.368Z,70.24
2022-10-01T22:16:55.282Z,70.78
2022-10-01T22:19:29.202Z,70.73
2022-10-01T22:22:04.030Z,70.69
2022-10-01T22:24:39.778Z,70.76
2022-10-01T22:27:14.856Z,70.60
2022-10-01T22:29:50.241Z,70.60
2022-10-01T22:32:23.325Z,70.61
2022-10-01T22:34:58.927Z,71.07
2022-10-01T22:37:33.066Z,70.95
2022-10-01T22:40:14.740Z,71.49
2022-10-01T22:42:52.400Z,71.18
2022-10-01T22:45:27.133Z,71.60
2022-10-01T22:48:08.034Z,71.72
2022-10-01T22:50:52.560Z,71.87
2022-10-01T22:53:35.758Z,71.49
2022-10-01T22:56:03.749Z,72.23
2022-10-01T22:58:48.943Z,71.82
2022-10-01T23:01:26.214Z,72.06
2022-10-01T23:04:12.071Z,72.10
2022-10-01T23:06:45.864Z,72.35
2022-10-01T23:09:19.002Z,72.18
2022-10-01T23:11:56.744Z,72.44
2022-10-01T23:14:40.271Z,72.41
2022-10-01T23:17:15.227Z,72.48
2022-10-01T23:19:52.903Z,72.57
2022-10-01T23:22:37.205Z,72.58
2022-10-01T23:25:17.444Z,72.59
2022-10-01T23:28:00.612Z,72.63
2022-10-01T23:30:40.425Z,72.30
2022-10-01T23:33:27.982Z,72.75
2022-10-01T23:36:06.953Z,72.44
2022-10-01T23:39:02.925Z,72.99
2022-10-01T23:41:38.663Z,72.45
2022-10-01T23:44:15.493Z,72.70
2022-10-01T23:46:51.637Z,73.35
2022-10-01T23:49:24.114Z,73.27
2022-10-01T23:51:59.724Z,72.93
2022-10-01T23:54:31.439Z,73.34
2022-10-01T23:57:09.154Z,72.99
2022-10-01T23:59:41.600Z,73.36
